Time;durP1;ratioP1;P1;durP2;ratioP2;P2;SDS_P1;SDS_P2;PMS_P1;PMS_P2;Temp;Humidity;BMP_temperature;BMP_pressure;BME280_temperature;BME280_humidity;BME280_pressure;Samples;Min_cycle;Max_cycle;Signal;HPM_P1;HPM_P2
2022/05/13 00:00:10;;;;;;;1.70;0.63;;;;;;;;;;4932939;29;20047;-49
2022/05/13 00:02:40;;;;;;;1.20;0.70;;;;;;;;;;4933123;29;20555;-47
2022/05/13 00:05:08;;;;;;;1.20;0.75;;;;;;;;;;4932935;29;20035;-49
2022/05/13 00:07:35;;;;;;;2.22;0.90;;;;;;;;;;4932765;29;20134;-49
2022/05/13 00:10:06;;;;;;;1.10;0.88;;;;;;;;;;4933014;29;20118;-49
2022/05/13 00:12:40;;;;;;;1.85;0.90;;;;;;;;;;4932779;29;20051;-50
2022/05/13 00:15:18;;;;;;;1.45;0.80;;;;;;;;;;4932807;29;20103;-50
2022/05/13 00:17:47;;;;;;;1.13;0.98;;;;;;;;;;4932694;29;20627;-51
2022/05/13 00:20:16;;;;;;;1.23;1.00;;;;;;;;;;4932543;29;20456;-47
2022/05/13 00:22:50;;;;;;;1.27;0.95;;;;;;;;;;4933031;29;20423;-52
2022/05/13 00:25:24;;;;;;;1.00;0.88;;;;;;;;;;4932869;29;20500;-51
2022/05/13 00:27:54;;;;;;;1.75;1.00;;;;;;;;;;4936736;29;20484;-48
2022/05/13 00:30:22;;;;;;;1.02;0.88;;;;;;;;;;4951810;29;20047;-48
2022/05/13 00:32:50;;;;;;;2.05;1.25;;;;;;;;;;4951915;28;20131;-46
2022/05/13 00:35:20;;;;;;;1.80;0.85;;;;;;;;;;4951679;28;20400;-47
2022/05/13 00:37:48;;;;;;;2.75;1.17;;;;;;;;;;4951623;28;20507;-48
2022/05/13 00:40:20;;;;;;;3.00;1.10;;;;;;;;;;4951718;28;20082;-51
2022/05/13 00:42:49;;;;;;;1.67;1.02;;;;;;;;;;4950645;29;20036;-50
2022/05/13 00:45:18;;;;;;;1.27;1.02;;;;;;;;;;4951820;28;20043;-47
2022/05/13 00:47:45;;;;;;;1.13;1.02;;;;;;;;;;4951817;28;20051;-49
2022/05/13 00:50:15;;;;;;;1.48;1.20;;;;;;;;;;4951823;28;20500;-48
2022/05/13 00:52:48;;;;;;;1.58;1.17;;;;;;;;;;4951938;28;20389;-52
2022/05/13 00:55:37;;;;;;;1.33;1.08;;;;;;;;;;4953087;28;20075;-49
2022/05/13 00:58:09;;;;;;;1.50;1.20;;;;;;;;;;4955294;28;20121;-48
2022/05/13 01:00:37;;;;;;;3.10;1.15;;;;;;;;;;4956865;28;20039;-55
2022/05/13 01:03:06;;;;;;;1.83;1.05;;;;;;;;;;4951714;29;20051;-60
2022/05/13 01:05:36;;;;;;;2.42;1.45;;;;;;;;;;4952779;28;20047;-46
2022/05/13 01:08:06;;;;;;;2.28;1.30;;;;;;;;;;4954314;29;20550;-47
2022/05/13 01:10:36;;;;;;;1.85;1.13;;;;;;;;;;4956436;28;20094;-53
2022/05/13 01:13:07;;;;;;;3.22;1.75;;;;;;;;;;4954148;29;20466;-54
2022/05/13 01:15:37;;;;;;;3.30;1.33;;;;;;;;;;4951318;28;20044;-54
2022/05/13 01:18:07;;;;;;;2.17;1.20;;;;;;;;;;4952886;28;20123;-50
2022/05/13 01:20:48;;;;;;;1.38;1.13;;;;;;;;;;4952341;28;20514;-52
2022/05/13 01:23:19;;;;;;;1.60;1.30;;;;;;;;;;4952059;28;20062;-52
2022/05/13 01:25:50;;;;;;;2.95;1.08;;;;;;;;;;4952418;29;20046;-46
2022/05/13 01:28:24;;;;;;;1.80;1.50;;;;;;;;;;4944477;29;20568;-50
2022/05/13 01:30:55;;;;;;;1.75;1.20;;;;;;;;;;4933443;29;20047;-52
2022/05/13 01:33:24;;;;;;;1.65;1.30;;;;;;;;;;4934449;29;20131;-50
2022/05/13 01:35:54;;;;;;;1.77;1.25;;;;;;;;;;4935624;29;20048;-50
2022/05/13 01:38:26;;;;;;;1.80;1.50;;;;;;;;;;4935475;29;20687;-48
2022/05/13 01:40:54;;;;;;;1.80;1.30;;;;;;;;;;4935539;29;20056;-58
2022/05/13 01:43:22;;;;;;;1.10;1.00;;;;;;;;;;4935468;29;20047;-51
2022/05/13 01:45:50;;;;;;;1.90;1.38;;;;;;;;;;4935403;29;20051;-52
2022/05/13 01:48:18;;;;;;;1.50;1.10;;;;;;;;;;4935248;29;20035;-53
2022/05/13 01:50:46;;;;;;;1.80;1.20;;;;;;;;;;4935137;29;20052;-53
2022/05/13 01:53:13;;;;;;;2.10;1.20;;;;;;;;;;4935057;29;20040;-58
2022/05/13 01:55:42;;;;;;;1.40;1.17;;;;;;;;;;4934635;29;20054;-51
2022/05/13 01:58:15;;;;;;;1.75;1.25;;;;;;;;;;4934992;29;20107;-53
2022/05/13 02:00:45;;;;;;;1.40;1.10;;;;;;;;;;4933629;29;20067;-51
2022/05/13 02:03:56;;;;;;;2.05;1.10;;;;;;;;;;4933938;29;20044;-46
2022/05/13 02:06:05;;;;;;;2.13;1.25;;;;;;;;;;4932235;29;20074;-53
2022/05/13 02:08:33;;;;;;;2.22;1.27;;;;;;;;;;4934858;29;20047;-53
2022/05/13 02:11:02;;;;;;;1.70;1.20;;;;;;;;;;4935044;29;20407;-57
2022/05/13 02:13:31;;;;;;;2.25;1.23;;;;;;;;;;4934696;29;20535;-52
2022/05/13 02:16:00;;;;;;;1.92;1.20;;;;;;;;;;4934593;29;20054;-53
2022/05/13 02:18:27;;;;;;;1.90;1.20;;;;;;;;;;4933628;29;20040;-65
2022/05/13 02:20:56;;;;;;;4.55;2.78;;;;;;;;;;4934384;29;20044;-51
2022/05/13 02:23:24;;;;;;;2.00;1.20;;;;;;;;;;4933733;29;20519;-54
2022/05/13 02:25:56;;;;;;;1.58;1.13;;;;;;;;;;4934856;29;20040;-52
2022/05/13 02:28:24;;;;;;;1.83;1.20;;;;;;;;;;4949530;28;20055;-57
2022/05/13 02:30:52;;;;;;;12.90;6.75;;;;;;;;;;4954083;28;20452;-55
2022/05/13 02:33:20;;;;;;;2.47;1.85;;;;;;;;;;4953472;29;20055;-60
2022/05/13 02:35:48;;;;;;;1.52;1.15;;;;;;;;;;4953419;29;20051;-48
2022/05/13 02:38:16;;;;;;;1.58;1.08;;;;;;;;;;4953429;28;20078;-50
2022/05/13 02:43:31;;;;;;;1.85;1.42;;;;;;;;;;4953355;28;20108;-60
2022/05/13 02:45:58;;;;;;;1.65;1.10;;;;;;;;;;4953404;28;20040;-50
2022/05/13 02:48:26;;;;;;;2.17;1.00;;;;;;;;;;4953572;28;20040;-51
2022/05/13 02:50:54;;;;;;;1.83;1.00;;;;;;;;;;4953723;29;20036;-59
2022/05/13 02:53:23;;;;;;;22.90;10.50;;;;;;;;;;4953505;28;20098;-48
2022/05/13 02:55:50;;;;;;;3.25;1.65;;;;;;;;;;4951871;28;20662;-50
2022/05/13 02:58:18;;;;;;;1.23;0.98;;;;;;;;;;4952017;29;20062;-60
2022/05/13 03:00:46;;;;;;;1.75;0.90;;;;;;;;;;4952031;28;20067;-54
2022/05/13 03:15:33;;;;;;;5.03;2.53;;;;;;;;;;5186243;27;20384;-54
2022/05/13 03:18:01;;;;;;;1.42;0.90;;;;;;;;;;5074044;28;20440;-52
2022/05/13 03:20:29;;;;;;;1.48;1.10;;;;;;;;;;5129292;28;20071;-52
2022/05/13 03:23:00;;;;;;;1.55;1.10;;;;;;;;;;5129465;28;20062;-52
2022/05/13 03:25:27;;;;;;;0.90;0.80;;;;;;;;;;5125177;28;20569;-56
2022/05/13 03:27:55;;;;;;;1.58;0.90;;;;;;;;;;5113766;28;20043;-62
2022/05/13 03:30:24;;;;;;;1.25;0.77;;;;;;;;;;5129658;28;20046;-61
2022/05/13 03:32:53;;;;;;;1.27;1.05;;;;;;;;;;5129703;28;20031;-60
2022/05/13 03:35:23;;;;;;;1.65;1.10;;;;;;;;;;5129276;28;20100;-60
2022/05/13 03:37:50;;;;;;;1.15;1.02;;;;;;;;;;5129302;28;20109;-61
2022/05/13 03:40:18;;;;;;;1.20;0.75;;;;;;;;;;5129028;28;20067;-51
2022/05/13 03:42:47;;;;;;;2.38;1.00;;;;;;;;;;5129120;28;20474;-54
2022/05/13 03:45:18;;;;;;;1.10;1.00;;;;;;;;;;5129155;28;20118;-61
2022/05/13 03:47:45;;;;;;;2.10;1.30;;;;;;;;;;5110703;28;20086;-56
2022/05/13 03:50:13;;;;;;;41.30;16.85;;;;;;;;;;5129157;28;20032;-58
2022/05/13 03:52:42;;;;;;;10.23;5.50;;;;;;;;;;5128833;27;20046;-54
2022/05/13 03:55:11;;;;;;;1.10;1.00;;;;;;;;;;5129001;27;20040;-61
2022/05/13 03:57:39;;;;;;;1.10;1.00;;;;;;;;;;5128785;28;20084;-52
2022/05/13 04:00:07;;;;;;;1.63;1.10;;;;;;;;;;5128920;27;20096;-54
2022/05/13 04:02:36;;;;;;;2.63;1.00;;;;;;;;;;5128492;28;20410;-57
2022/05/13 04:10:46;;;;;;;;;;;;;;;;;;5129135;28;20448;-48
2022/05/13 04:16:06;;;;;;;2.03;1.17;;;;;;;;;;5128584;28;20487;-54
2022/05/13 04:18:39;;;;;;;1.15;0.95;;;;;;;;;;5128281;28;20595;-62
2022/05/13 04:21:12;;;;;;;1.75;1.10;;;;;;;;;;5128389;27;20055;-53
2022/05/13 04:23:43;;;;;;;3.45;1.13;;;;;;;;;;5128134;28;20393;-52
2022/05/13 04:26:14;;;;;;;1.50;1.10;;;;;;;;;;5119081;28;20082;-52
2022/05/13 04:28:44;;;;;;;1.45;1.15;;;;;;;;;;5114545;28;20051;-54
2022/05/13 04:31:13;;;;;;;1.48;1.10;;;;;;;;;;5114679;28;20035;-53
2022/05/13 04:33:41;;;;;;;2.95;1.83;;;;;;;;;;5114395;28;20075;-53
2022/05/13 04:36:09;;;;;;;2.28;1.60;;;;;;;;;;5114096;28;20448;-52
2022/05/13 04:38:37;;;;;;;3.03;1.05;;;;;;;;;;5114525;28;20494;-50
2022/05/13 04:43:53;;;;;;;2.40;0.95;;;;;;;;;;5114476;28;20089;-51
2022/05/13 04:46:20;;;;;;;1.65;1.00;;;;;;;;;;5114285;28;20035;-49
2022/05/13 04:48:48;;;;;;;1.88;1.05;;;;;;;;;;5095554;28;20512;-53
2022/05/13 04:51:20;;;;;;;1.15;0.80;;;;;;;;;;5114217;28;20039;-54
2022/05/13 04:53:50;;;;;;;1.88;1.02;;;;;;;;;;5113936;28;20044;-55
2022/05/13 04:56:18;;;;;;;5.20;1.20;;;;;;;;;;5114007;28;20093;-51
2022/05/13 04:58:46;;;;;;;46.22;23.45;;;;;;;;;;5113991;28;20047;-70
2022/05/13 05:01:14;;;;;;;1.63;1.10;;;;;;;;;;5113749;28;20439;-61
2022/05/13 05:03:43;;;;;;;0.95;0.80;;;;;;;;;;5113844;28;20047;-61
2022/05/13 05:06:11;;;;;;;2.17;1.20;;;;;;;;;;5113973;28;20105;-61
2022/05/13 05:08:40;;;;;;;1.90;1.20;;;;;;;;;;5113779;28;20464;-55
2022/05/13 05:11:09;;;;;;;0.88;0.77;;;;;;;;;;5113820;28;20036;-60
2022/05/13 05:13:41;;;;;;;1.80;0.98;;;;;;;;;;5113485;28;20056;-59
2022/05/13 05:16:09;;;;;;;1.33;0.98;;;;;;;;;;5113453;28;20398;-52
2022/05/13 05:18:38;;;;;;;1.58;0.90;;;;;;;;;;5113734;28;20044;-59
2022/05/13 05:21:07;;;;;;;1.45;0.90;;;;;;;;;;5113637;28;20066;-54
2022/05/13 05:23:38;;;;;;;3.15;1.35;;;;;;;;;;5113291;28;20062;-55
2022/05/13 05:26:06;;;;;;;4.25;1.38;;;;;;;;;;5113395;28;20046;-52
2022/05/13 05:28:37;;;;;;;4.88;2.17;;;;;;;;;;5113367;28;20092;-53
2022/05/13 05:31:06;;;;;;;4.18;2.22;;;;;;;;;;5113507;28;20398;-61
2022/05/13 05:33:34;;;;;;;1.88;1.13;;;;;;;;;;5113267;28;20032;-50
2022/05/13 05:36:01;;;;;;;1.65;1.08;;;;;;;;;;5113079;28;20059;-51
2022/05/13 05:38:31;;;;;;;1.15;0.95;;;;;;;;;;5111971;28;20427;-53
2022/05/13 05:40:59;;;;;;;1.85;0.80;;;;;;;;;;5112359;28;20701;-53
2022/05/13 05:43:27;;;;;;;0.98;0.80;;;;;;;;;;5112645;28;20044;-51
2022/05/13 05:45:57;;;;;;;0.90;0.77;;;;;;;;;;5113358;28;20036;-48
2022/05/13 05:48:25;;;;;;;2.08;0.85;;;;;;;;;;5113111;28;20490;-51
2022/05/13 05:50:55;;;;;;;1.77;0.98;;;;;;;;;;5113108;28;20043;-51
2022/05/13 05:58:58;;;;;;;1.00;0.85;;;;;;;;;;5112822;28;20040;-51
2022/05/13 06:01:25;;;;;;;1.17;0.90;;;;;;;;;;5112943;28;20039;-55
2022/05/13 06:03:52;;;;;;;1.77;0.85;;;;;;;;;;5112522;28;20067;-52
2022/05/13 06:06:20;;;;;;;1.00;0.80;;;;;;;;;;5112859;28;20039;-50
2022/05/13 06:08:47;;;;;;;1.50;0.70;;;;;;;;;;5112679;28;20088;-52
2022/05/13 06:11:15;;;;;;;2.92;1.05;;;;;;;;;;5112577;28;20058;-49
2022/05/13 06:13:42;;;;;;;1.42;0.80;;;;;;;;;;5112458;28;20062;-52
2022/05/13 06:16:09;;;;;;;0.95;0.80;;;;;;;;;;5112307;28;20067;-56
2022/05/13 06:18:38;;;;;;;1.55;0.70;;;;;;;;;;5112367;28;20454;-54
2022/05/13 06:21:05;;;;;;;1.42;0.80;;;;;;;;;;5112407;28;20379;-50
2022/05/13 06:23:35;;;;;;;1.88;0.90;;;;;;;;;;5112072;28;20043;-54
2022/05/13 06:26:03;;;;;;;1.05;0.70;;;;;;;;;;5112507;28;20058;-49
2022/05/13 06:28:30;;;;;;;0.75;0.70;;;;;;;;;;5112211;28;20410;-53
2022/05/13 06:30:57;;;;;;;1.98;0.75;;;;;;;;;;5112144;28;20044;-60
2022/05/13 06:33:25;;;;;;;0.90;0.63;;;;;;;;;;5112526;28;20032;-60
2022/05/13 06:35:53;;;;;;;1.15;0.90;;;;;;;;;;5112569;28;20047;-53
2022/05/13 06:38:22;;;;;;;0.93;0.60;;;;;;;;;;5110766;28;20039;-59
2022/05/13 06:40:52;;;;;;;0.70;0.65;;;;;;;;;;5112288;28;20394;-60
2022/05/13 06:43:21;;;;;;;0.82;0.70;;;;;;;;;;5110584;28;20435;-56
2022/05/13 06:45:49;;;;;;;0.60;0.60;;;;;;;;;;5111993;28;20044;-58
2022/05/13 06:48:16;;;;;;;1.27;0.70;;;;;;;;;;5111985;28;20738;-58
2022/05/13 06:50:44;;;;;;;1.35;0.70;;;;;;;;;;5111985;28;20043;-53
2022/05/13 06:53:11;;;;;;;1.55;0.70;;;;;;;;;;5112052;28;20043;-49
2022/05/13 06:55:40;;;;;;;1.45;0.68;;;;;;;;;;5111413;28;20040;-53
2022/05/13 06:58:07;;;;;;;1.40;0.77;;;;;;;;;;5111884;28;20067;-54
2022/05/13 07:00:34;;;;;;;2.15;0.63;;;;;;;;;;5111768;28;20104;-51
2022/05/13 07:03:02;;;;;;;1.40;0.70;;;;;;;;;;5111855;28;20040;-49
2022/05/13 07:05:30;;;;;;;0.85;0.63;;;;;;;;;;5111609;28;20035;-53
2022/05/13 07:07:57;;;;;;;1.00;0.65;;;;;;;;;;5111773;28;20039;-54
2022/05/13 07:10:25;;;;;;;1.13;0.70;;;;;;;;;;5111842;28;20415;-49
2022/05/13 07:12:52;;;;;;;1.00;0.85;;;;;;;;;;5111806;28;20048;-53
2022/05/13 07:15:20;;;;;;;0.68;0.60;;;;;;;;;;5111456;28;20451;-52
2022/05/13 07:17:48;;;;;;;0.88;0.73;;;;;;;;;;5111621;28;20048;-54
2022/05/13 07:20:16;;;;;;;1.20;0.80;;;;;;;;;;5111736;28;20540;-51
2022/05/13 07:22:45;;;;;;;1.13;0.70;;;;;;;;;;5111453;28;20105;-57
2022/05/13 07:25:12;;;;;;;0.95;0.65;;;;;;;;;;5111522;28;20043;-53
2022/05/13 07:27:40;;;;;;;1.02;0.63;;;;;;;;;;5111561;28;20113;-60
2022/05/13 07:30:08;;;;;;;1.23;0.60;;;;;;;;;;5111487;28;20111;-60
2022/05/13 07:32:35;;;;;;;1.05;0.60;;;;;;;;;;5111714;28;20123;-51
2022/05/13 07:35:04;;;;;;;2.70;0.80;;;;;;;;;;5111457;28;20036;-55
2022/05/13 07:37:31;;;;;;;0.75;0.60;;;;;;;;;;5111427;28;20073;-52
2022/05/13 07:42:45;;;;;;;1.00;0.65;;;;;;;;;;5111396;28;20046;-51
2022/05/13 07:45:12;;;;;;;2.00;0.80;;;;;;;;;;5111345;28;20057;-57
2022/05/13 07:47:42;;;;;;;1.40;0.80;;;;;;;;;;5111279;28;20072;-53
2022/05/13 07:50:14;;;;;;;1.00;0.60;;;;;;;;;;5111131;28;20048;-50
2022/05/13 07:52:42;;;;;;;0.40;0.40;;;;;;;;;;5111409;28;20078;-52
2022/05/13 07:55:12;;;;;;;1.20;0.50;;;;;;;;;;5111097;28;20036;-48
2022/05/13 07:57:40;;;;;;;1.02;0.70;;;;;;;;;;5111440;28;20039;-57
2022/05/13 08:00:25;;;;;;;2.95;0.60;;;;;;;;;;5111262;28;20042;-60
2022/05/13 08:02:55;;;;;;;0.82;0.43;;;;;;;;;;5115276;28;20114;-53
2022/05/13 08:05:23;;;;;;;1.55;0.60;;;;;;;;;;5115249;28;20516;-58
2022/05/13 08:08:21;;;;;;;1.17;0.70;;;;;;;;;;5114989;28;20483;-59
2022/05/13 08:10:52;;;;;;;1.38;0.80;;;;;;;;;;5115009;28;20040;-58
2022/05/13 08:13:20;;;;;;;2.20;1.15;;;;;;;;;;5114749;28;20036;-53
2022/05/13 08:15:48;;;;;;;3.25;0.40;;;;;;;;;;5114862;28;20136;-58
2022/05/13 08:18:18;;;;;;;2.45;0.57;;;;;;;;;;5115026;28;20108;-57
2022/05/13 08:20:47;;;;;;;1.15;0.80;;;;;;;;;;5114864;28;20040;-52
2022/05/13 08:23:15;;;;;;;1.73;0.70;;;;;;;;;;5114267;28;20045;-54
2022/05/13 08:25:44;;;;;;;0.85;0.50;;;;;;;;;;5114494;28;20067;-53
2022/05/13 08:28:12;;;;;;;0.90;0.47;;;;;;;;;;5114558;28;20490;-51
2022/05/13 08:30:41;;;;;;;1.73;0.40;;;;;;;;;;5114676;28;20074;-51
2022/05/13 08:33:08;;;;;;;1.20;0.68;;;;;;;;;;5114674;28;20461;-52
2022/05/13 08:35:51;;;;;;;1.40;0.70;;;;;;;;;;5114465;28;20075;-60
2022/05/13 08:38:24;;;;;;;1.15;0.70;;;;;;;;;;5114575;28;20055;-51
2022/05/13 08:40:54;;;;;;;3.33;1.05;;;;;;;;;;5114423;28;20118;-52
2022/05/13 08:43:25;;;;;;;1.23;0.50;;;;;;;;;;5114200;28;20039;-48
2022/05/13 08:45:56;;;;;;;1.20;0.50;;;;;;;;;;5114436;28;20035;-52
2022/05/13 08:48:32;;;;;;;1.30;0.70;;;;;;;;;;5114392;28;20031;-59
2022/05/13 08:51:11;;;;;;;1.55;0.63;;;;;;;;;;5114318;28;20071;-53
2022/05/13 08:54:16;;;;;;;1.92;0.70;;;;;;;;;;5114170;28;20035;-51
2022/05/13 08:56:47;;;;;;;1.67;0.77;;;;;;;;;;5113717;28;20123;-52
2022/05/13 08:59:21;;;;;;;0.70;0.60;;;;;;;;;;5114153;28;20046;-49
2022/05/13 09:02:01;;;;;;;1.85;0.70;;;;;;;;;;5113536;28;20066;-58
2022/05/13 09:04:42;;;;;;;1.15;0.70;;;;;;;;;;5113870;28;20092;-51
2022/05/13 09:07:19;;;;;;;1.45;0.70;;;;;;;;;;5113804;28;20040;-52
2022/05/13 09:09:51;;;;;;;1.08;0.45;;;;;;;;;;5113879;28;21002;-54
2022/05/13 09:12:32;;;;;;;0.95;0.60;;;;;;;;;;5095571;28;20506;-50
2022/05/13 09:15:13;;;;;;;0.68;0.60;;;;;;;;;;5113585;28;20059;-57
2022/05/13 09:18:16;;;;;;;1.52;0.50;;;;;;;;;;5113363;28;20040;-52
2022/05/13 09:20:59;;;;;;;0.70;0.55;;;;;;;;;;5113622;28;20035;-49
2022/05/13 09:23:27;;;;;;;0.95;0.70;;;;;;;;;;5113854;28;20553;-50
2022/05/13 09:26:03;;;;;;;1.33;0.60;;;;;;;;;;5113270;28;20047;-59
2022/05/13 09:28:34;;;;;;;1.67;0.70;;;;;;;;;;5113316;28;20478;-57
2022/05/13 09:31:15;;;;;;;;;;;;;;;;;;5114133;28;20070;-60
2022/05/13 09:33:56;;;;;;;0.73;0.57;;;;;;;;;;5113733;28;19972;-57
2022/05/13 09:36:27;;;;;;;0.90;0.60;;;;;;;;;;5113156;28;20043;-50
2022/05/13 09:39:19;;;;;;;0.77;0.63;;;;;;;;;;5113566;28;20039;-59
2022/05/13 09:41:46;;;;;;;6.28;0.80;;;;;;;;;;5112656;28;20067;-50
2022/05/13 09:44:25;;;;;;;2.67;1.13;;;;;;;;;;5113433;28;20031;-60
2022/05/13 09:47:12;;;;;;;1.20;0.47;;;;;;;;;;5113152;28;20078;-60
2022/05/13 09:50:01;;;;;;;2.40;0.60;;;;;;;;;;5113049;28;20039;-52
2022/05/13 09:52:37;;;;;;;1.05;0.50;;;;;;;;;;5113329;28;20046;-54
2022/05/13 09:55:22;;;;;;;1.85;0.52;;;;;;;;;;5094744;28;20055;-53
2022/05/13 09:57:51;;;;;;;0.90;0.70;;;;;;;;;;5112774;28;20044;-55
2022/05/13 10:00:26;;;;;;;1.35;0.73;;;;;;;;;;5112745;28;20070;-52
2022/05/13 10:03:36;;;;;;;1.25;0.60;;;;;;;;;;5112994;28;20062;-55
2022/05/13 10:06:13;;;;;;;1.83;0.50;;;;;;;;;;5112657;28;20402;-52
2022/05/13 10:08:53;;;;;;;0.90;0.50;;;;;;;;;;5112853;28;20072;-56
2022/05/13 10:14:42;;;;;;;1.05;0.70;;;;;;;;;;5112601;28;20051;-52
2022/05/13 10:17:19;;;;;;;1.13;0.60;;;;;;;;;;5041029;28;20051;-56
2022/05/13 10:19:50;;;;;;;1.33;0.68;;;;;;;;;;5112274;28;20119;-55
2022/05/13 10:22:22;;;;;;;1.30;0.50;;;;;;;;;;5112109;28;20127;-53
2022/05/13 10:25:03;;;;;;;1.35;0.70;;;;;;;;;;5112050;28;20064;-54
2022/05/13 10:27:36;;;;;;;0.63;0.50;;;;;;;;;;5112287;28;20075;-56
2022/05/13 10:30:21;;;;;;;0.55;0.40;;;;;;;;;;5112377;28;20067;-49
2022/05/13 10:33:16;;;;;;;1.52;0.43;;;;;;;;;;5112214;28;20044;-51
2022/05/13 10:35:51;;;;;;;1.52;0.50;;;;;;;;;;5062179;28;20413;-52
2022/05/13 10:38:28;;;;;;;1.77;0.70;;;;;;;;;;5112268;28;20122;-51
2022/05/13 10:41:03;;;;;;;1.67;0.80;;;;;;;;;;5112133;28;20044;-57
2022/05/13 10:43:56;;;;;;;1.35;0.70;;;;;;;;;;5111900;28;20067;-52
2022/05/13 10:46:31;;;;;;;0.80;0.60;;;;;;;;;;5112213;28;20043;-55
2022/05/13 10:49:19;;;;;;;0.50;0.40;;;;;;;;;;5111797;28;20043;-53
2022/05/13 10:51:49;;;;;;;1.25;0.50;;;;;;;;;;5111981;28;20043;-50
2022/05/13 10:54:25;;;;;;;2.00;0.50;;;;;;;;;;5111941;28;20035;-52
2022/05/13 10:57:25;;;;;;;1.00;0.50;;;;;;;;;;5111776;28;20043;-57
2022/05/13 11:00:24;;;;;;;0.85;0.30;;;;;;;;;;5079209;28;20051;-49
2022/05/13 11:02:52;;;;;;;0.75;0.43;;;;;;;;;;5111850;28;20051;-55
2022/05/13 11:05:33;;;;;;;0.45;0.35;;;;;;;;;;5111452;28;20039;-59
2022/05/13 11:08:12;;;;;;;1.17;0.57;;;;;;;;;;5111676;28;20401;-60
2022/05/13 11:11:29;;;;;;;1.05;0.30;;;;;;;;;;5111650;28;20072;-60
2022/05/13 11:14:15;;;;;;;0.77;0.40;;;;;;;;;;5106532;28;20440;-60
2022/05/13 11:17:05;;;;;;;0.63;0.40;;;;;;;;;;5111515;28;20055;-58
2022/05/13 11:19:49;;;;;;;0.60;0.40;;;;;;;;;;5101098;28;20040;-60
2022/05/13 11:22:26;;;;;;;0.85;0.40;;;;;;;;;;5111522;28;20177;-57
2022/05/13 11:28:35;;;;;;;0.80;0.30;;;;;;;;;;5111548;28;20110;-56
2022/05/13 11:31:24;;;;;;;0.82;0.40;;;;;;;;;;5111459;28;20043;-55
2022/05/13 11:34:05;;;;;;;0.77;0.30;;;;;;;;;;5111739;28;20074;-54
2022/05/13 11:36:51;;;;;;;1.95;0.45;;;;;;;;;;5113991;28;20567;-53
2022/05/13 11:39:42;;;;;;;0.98;0.40;;;;;;;;;;5115438;28;20463;-54
2022/05/13 11:42:34;;;;;;;0.65;0.45;;;;;;;;;;5115397;28;20114;-57
2022/05/13 11:45:14;;;;;;;0.90;0.38;;;;;;;;;;5115544;28;20521;-52
2022/05/13 11:48:26;;;;;;;0.52;0.22;;;;;;;;;;5115366;28;20087;-56
2022/05/13 11:51:11;;;;;;;0.90;0.40;;;;;;;;;;5115218;28;20067;-53
2022/05/13 11:53:42;;;;;;;0.30;0.30;;;;;;;;;;5115405;28;20051;-52
2022/05/13 11:56:26;;;;;;;1.08;0.45;;;;;;;;;;5115308;28;20039;-51
2022/05/13 11:58:55;;;;;;;0.30;0.30;;;;;;;;;;5115294;28;20032;-53
2022/05/13 12:04:16;;;;;;;0.43;0.35;;;;;;;;;;5115008;28;20074;-52
2022/05/13 12:06:49;;;;;;;1.63;0.43;;;;;;;;;;5114698;28;20044;-59
2022/05/13 12:09:21;;;;;;;0.88;0.30;;;;;;;;;;5115205;28;20102;-60
2022/05/13 12:11:53;;;;;;;0.40;0.20;;;;;;;;;;5114779;28;20055;-54
2022/05/13 12:14:46;;;;;;;3.90;0.45;;;;;;;;;;5114801;28;20077;-53
2022/05/13 12:17:23;;;;;;;;;;;;;;;;;;5115300;28;20066;-51
2022/05/13 12:20:35;;;;;;;0.93;0.38;;;;;;;;;;5114615;28;19919;-60
2022/05/13 12:23:21;;;;;;;0.38;0.30;;;;;;;;;;5011565;28;20086;-61
2022/05/13 12:26:02;;;;;;;0.95;0.50;;;;;;;;;;5106077;28;20094;-51
2022/05/13 12:28:31;;;;;;;0.30;0.30;;;;;;;;;;5106636;28;20047;-54
2022/05/13 12:30:58;;;;;;;0.75;0.30;;;;;;;;;;5114776;28;20439;-59
2022/05/13 12:33:29;;;;;;;1.50;0.30;;;;;;;;;;5114883;28;20455;-59
2022/05/13 12:39:08;;;;;;;0.63;0.47;;;;;;;;;;5114450;28;20110;-59
2022/05/13 12:42:09;;;;;;;0.30;0.20;;;;;;;;;;5114389;28;20118;-59
2022/05/13 12:44:58;;;;;;;0.55;0.30;;;;;;;;;;5114342;28;20089;-59
2022/05/13 12:47:29;;;;;;;19.80;9.65;;;;;;;;;;5095630;28;20528;-54
2022/05/13 12:50:00;;;;;;;2.58;1.63;;;;;;;;;;5114357;28;20054;-51
2022/05/13 12:52:27;;;;;;;0.52;0.30;;;;;;;;;;5114279;28;20118;-56
2022/05/13 12:55:18;;;;;;;0.80;0.38;;;;;;;;;;5114224;28;20080;-52
2022/05/13 12:58:04;;;;;;;0.57;0.30;;;;;;;;;;5114090;28;20433;-53
2022/05/13 13:00:44;;;;;;;0.70;0.30;;;;;;;;;;5113959;28;20051;-54
2022/05/13 13:03:13;;;;;;;0.50;0.20;;;;;;;;;;5113483;28;20047;-55
2022/05/13 13:05:50;;;;;;;0.75;0.20;;;;;;;;;;5114124;28;20478;-58
2022/05/13 13:08:22;;;;;;;7.05;4.25;;;;;;;;;;5113869;28;20047;-55
2022/05/13 13:10:50;;;;;;;1.08;0.32;;;;;;;;;;5113765;28;20052;-59
2022/05/13 13:13:28;;;;;;;3.40;0.30;;;;;;;;;;5113743;28;20039;-53
2022/05/13 13:16:05;;;;;;;1.75;0.55;;;;;;;;;;5114019;28;20050;-58
2022/05/13 13:18:36;;;;;;;0.30;0.30;;;;;;;;;;5113734;28;20383;-60
2022/05/13 13:21:09;;;;;;;1.08;0.30;;;;;;;;;;5113869;28;20035;-52
2022/05/13 13:23:40;;;;;;;2.67;0.40;;;;;;;;;;5113288;28;20126;-51
2022/05/13 13:26:10;;;;;;;0.85;0.30;;;;;;;;;;5113473;28;20555;-54
2022/05/13 13:28:43;;;;;;;0.40;0.30;;;;;;;;;;5113294;28;20039;-57
2022/05/13 13:31:13;;;;;;;0.60;0.30;;;;;;;;;;5113095;28;20486;-55
2022/05/13 13:33:47;;;;;;;0.98;0.50;;;;;;;;;;5113361;28;20043;-58
2022/05/13 13:36:27;;;;;;;0.90;0.20;;;;;;;;;;5113480;28;20040;-59
2022/05/13 13:39:16;;;;;;;1.15;0.30;;;;;;;;;;5113258;28;20044;-52
2022/05/13 13:41:47;;;;;;;0.52;0.30;;;;;;;;;;5113080;28;20051;-58
2022/05/13 13:44:15;;;;;;;1.23;0.38;;;;;;;;;;5112806;28;20435;-55
2022/05/13 13:46:44;;;;;;;0.28;0.20;;;;;;;;;;5113207;28;20043;-59
2022/05/13 13:49:25;;;;;;;1.05;0.30;;;;;;;;;;5113055;28;20490;-54
2022/05/13 13:51:56;;;;;;;0.65;0.28;;;;;;;;;;5112513;28;20043;-55
2022/05/13 13:54:30;;;;;;;58.08;34.08;;;;;;;;;;5112922;28;20393;-59
2022/05/13 13:57:10;;;;;;;9.32;5.13;;;;;;;;;;5113145;28;20611;-61
2022/05/13 13:59:55;;;;;;;1.75;0.43;;;;;;;;;;5111970;28;20070;-60
2022/05/13 14:02:36;;;;;;;0.45;0.20;;;;;;;;;;5112776;28;20047;-57
2022/05/13 14:05:13;;;;;;;0.65;0.22;;;;;;;;;;5112431;28;20044;-58
2022/05/13 14:07:46;;;;;;;0.65;0.40;;;;;;;;;;5112473;28;20134;-59
2022/05/13 14:10:21;;;;;;;0.90;0.60;;;;;;;;;;5112561;28;20081;-57
2022/05/13 14:12:49;;;;;;;0.45;0.30;;;;;;;;;;5112618;28;20276;-59
2022/05/13 14:15:17;;;;;;;2.40;0.30;;;;;;;;;;5094266;28;20426;-58
2022/05/13 14:17:54;;;;;;;3.70;0.85;;;;;;;;;;5112200;28;20055;-58
2022/05/13 14:20:31;;;;;;;0.63;0.30;;;;;;;;;;5112382;28;20436;-59
2022/05/13 14:23:05;;;;;;;0.35;0.22;;;;;;;;;;5112658;28;20069;-59
2022/05/13 14:25:57;;;;;;;3.03;0.30;;;;;;;;;;5112251;28;20051;-56
2022/05/13 14:28:29;;;;;;;0.30;0.20;;;;;;;;;;5112189;28;20067;-59
2022/05/13 14:31:18;;;;;;;0.63;0.30;;;;;;;;;;5112296;28;20456;-57
2022/05/13 14:33:53;;;;;;;0.20;0.20;;;;;;;;;;5112406;28;20466;-57
2022/05/13 14:36:30;;;;;;;0.77;0.20;;;;;;;;;;5111986;28;20036;-55
2022/05/13 14:41:57;;;;;;;0.68;0.63;;;;;;;;;;5112085;28;20035;-69
2022/05/13 14:44:40;;;;;;;5.68;2.40;;;;;;;;;;5111940;28;20061;-62
2022/05/13 14:47:27;;;;;;;;;;;;;;;;;;5112463;28;20126;-58
2022/05/13 14:50:14;;;;;;;0.38;0.20;;;;;;;;;;5112065;28;19927;-59
2022/05/13 14:52:52;;;;;;;0.20;0.20;;;;;;;;;;5111815;28;20451;-55
2022/05/13 14:55:37;;;;;;;0.65;0.30;;;;;;;;;;5111907;28;20118;-59
2022/05/13 14:58:37;;;;;;;1.65;0.30;;;;;;;;;;5111994;28;20490;-58
2022/05/13 15:01:13;;;;;;;0.52;0.30;;;;;;;;;;5111728;28;20050;-54
2022/05/13 15:03:45;;;;;;;0.40;0.22;;;;;;;;;;5111448;28;20035;-58
2022/05/13 15:06:18;;;;;;;0.55;0.40;;;;;;;;;;5111711;28;20071;-56
2022/05/13 15:08:50;;;;;;;0.65;0.32;;;;;;;;;;5111558;28;20398;-59
2022/05/13 15:11:21;;;;;;;0.30;0.30;;;;;;;;;;5109978;28;20040;-56
2022/05/13 15:13:51;;;;;;;0.52;0.30;;;;;;;;;;5111226;28;20079;-57
2022/05/13 15:16:30;;;;;;;0.75;0.30;;;;;;;;;;5111664;28;20571;-58
2022/05/13 15:18:58;;;;;;;0.47;0.40;;;;;;;;;;5111769;28;20414;-58
2022/05/13 15:21:25;;;;;;;1.38;0.30;;;;;;;;;;5111886;28;20396;-54
2022/05/13 15:23:53;;;;;;;0.20;0.20;;;;;;;;;;5110874;28;20039;-56
2022/05/13 15:26:26;;;;;;;2.45;0.40;;;;;;;;;;5111477;28;20052;-58
2022/05/13 15:28:54;;;;;;;;;;;;;;;;;;5099046;28;20040;-59
2022/05/13 15:31:28;;;;;;;0.60;0.38;;;;;;;;;;5091220;28;19927;-59
2022/05/13 15:33:55;;;;;;;0.90;0.47;;;;;;;;;;5091336;28;20089;-60
2022/05/13 15:36:25;;;;;;;6.68;3.20;;;;;;;;;;5091216;28;20552;-59
2022/05/13 15:38:52;;;;;;;1.60;0.70;;;;;;;;;;5090791;28;20036;-60
2022/05/13 15:41:19;;;;;;;0.80;0.43;;;;;;;;;;5091007;28;20119;-58
2022/05/13 15:43:46;;;;;;;0.50;0.40;;;;;;;;;;5090851;28;20051;-59
2022/05/13 15:46:17;;;;;;;1.15;0.40;;;;;;;;;;5090912;28;20074;-57
2022/05/13 15:48:44;;;;;;;0.68;0.40;;;;;;;;;;5090760;28;20079;-56
2022/05/13 15:53:58;;;;;;;1.10;0.35;;;;;;;;;;5091072;28;20040;-59
2022/05/13 15:56:37;;;;;;;1.00;0.40;;;;;;;;;;5090916;28;20032;-58
2022/05/13 15:59:05;;;;;;;0.70;0.40;;;;;;;;;;5101429;28;20118;-59
2022/05/13 16:01:52;;;;;;;0.57;0.28;;;;;;;;;;5110396;28;20424;-59
2022/05/13 16:04:20;;;;;;;0.45;0.30;;;;;;;;;;5092707;28;20652;-55
2022/05/13 16:06:48;;;;;;;0.73;0.43;;;;;;;;;;5111040;28;20509;-59
2022/05/13 16:09:15;;;;;;;0.88;0.40;;;;;;;;;;5110853;28;20047;-50
2022/05/13 16:11:51;;;;;;;0.30;0.30;;;;;;;;;;5111038;28;20032;-58